Time;durP1;ratioP1;P1;durP2;ratioP2;P2;SDS_P1;SDS_P2;PMS_P1;PMS_P2;Temp;Humidity;BMP_temperature;BMP_pressure;BME280_temperature;BME280_humidity;BME280_pressure;Samples;Min_cycle;Max_cycle;Signal;HPM_P1;HPM_P2
2024/01/31 00:02:11;;;;;;;20.42;14.00;;;7.30;99.90;;;;;;5004119;28;20073;-55
2024/01/31 00:04:38;;;;;;;21.60;14.18;;;7.40;99.90;;;;;;5002796;28;20038;-51
2024/01/31 00:07:05;;;;;;;18.50;12.90;;;7.40;99.90;;;;;;5010022;28;20466;-50
2024/01/31 00:09:32;;;;;;;21.02;14.30;;;7.40;99.90;;;;;;5007647;28;20057;-52
2024/01/31 00:11:59;;;;;;;19.88;13.85;;;7.40;99.90;;;;;;5007054;28;20197;-50
2024/01/31 00:14:26;;;;;;;19.38;13.05;;;7.40;99.90;;;;;;4989420;28;20634;-49
2024/01/31 00:16:53;;;;;;;20.08;13.77;;;7.40;99.90;;;;;;5005384;28;20092;-49
2024/01/31 00:19:20;;;;;;;22.05;13.85;;;7.40;99.90;;;;;;5006170;28;20048;-50
2024/01/31 00:21:47;;;;;;;24.20;14.32;;;7.40;99.90;;;;;;4989053;28;20054;-52
2024/01/31 00:24:14;;;;;;;19.00;13.98;;;7.50;99.90;;;;;;5008474;28;20443;-50
2024/01/31 00:26:41;;;;;;;23.55;14.52;;;7.50;99.90;;;;;;5008294;28;20073;-50
2024/01/31 00:29:07;;;;;;;22.73;14.10;;;7.50;99.90;;;;;;5012241;28;20116;-61
2024/01/31 00:31:34;;;;;;;22.75;14.93;;;7.50;99.90;;;;;;5000923;28;20408;-52
2024/01/31 00:34:01;;;;;;;23.83;14.40;;;7.50;99.90;;;;;;5012538;28;20045;-52
2024/01/31 00:36:28;;;;;;;22.95;14.57;;;7.50;99.90;;;;;;5006895;28;20096;-50
2024/01/31 00:38:55;;;;;;;21.23;14.15;;;7.50;99.90;;;;;;5010899;28;20083;-49
2024/01/31 00:41:22;;;;;;;22.90;14.75;;;7.50;99.90;;;;;;5014996;28;20081;-50
2024/01/31 00:43:50;;;;;;;23.30;14.82;;;7.50;99.90;;;;;;4994287;28;20033;-54
2024/01/31 00:46:17;;;;;;;23.95;14.15;;;7.50;99.90;;;;;;5011686;28;20050;-48
2024/01/31 00:48:45;;;;;;;23.80;14.63;;;7.50;99.90;;;;;;5009586;28;20563;-45
2024/01/31 00:51:12;;;;;;;24.60;14.88;;;7.50;99.90;;;;;;5009217;28;20129;-51
2024/01/31 00:53:40;;;;;;;22.02;14.10;;;7.50;99.90;;;;;;5016480;28;20475;-50
2024/01/31 00:56:08;;;;;;;22.20;13.63;;;7.50;99.90;;;;;;5014374;28;20045;-52
2024/01/31 00:58:36;;;;;;;20.67;13.27;;;7.50;99.90;;;;;;5013127;28;20440;-49
2024/01/31 01:01:03;;;;;;;21.80;14.00;;;7.50;99.90;;;;;;5006061;28;20085;-50
2024/01/31 01:03:30;;;;;;;23.42;15.35;;;7.50;99.90;;;;;;5008303;28;20065;-52
2024/01/31 01:05:57;;;;;;;21.70;14.82;;;7.50;99.90;;;;;;5011134;28;20045;-52
2024/01/31 01:08:24;;;;;;;22.17;14.75;;;7.50;99.90;;;;;;5006584;28;20037;-51
2024/01/31 01:10:52;;;;;;;21.50;14.15;;;7.50;99.90;;;;;;5018474;28;20635;-53
2024/01/31 01:13:18;;;;;;;24.08;14.60;;;7.50;99.90;;;;;;5012982;28;20414;-52
2024/01/31 01:15:46;;;;;;;22.90;14.75;;;7.50;99.90;;;;;;5013666;28;20142;-52
2024/01/31 01:18:13;;;;;;;19.67;13.73;;;7.50;99.90;;;;;;5007748;28;20112;-53
2024/01/31 01:20:40;;;;;;;20.50;14.00;;;7.50;99.90;;;;;;5012309;28;20045;-53
2024/01/31 01:23:07;;;;;;;22.75;14.05;;;7.50;99.90;;;;;;5016379;28;20045;-48
2024/01/31 01:25:34;;;;;;;20.33;14.27;;;7.60;99.90;;;;;;5009585;28;20050;-47
2024/01/31 01:28:01;;;;;;;22.98;15.25;;;7.60;99.90;;;;;;5014949;28;20038;-45
2024/01/31 01:30:28;;;;;;;19.73;14.05;;;7.60;99.90;;;;;;5012703;22;20054;-74
2024/01/31 01:32:55;;;;;;;21.80;14.60;;;7.60;99.90;;;;;;5006487;28;20128;-75
2024/01/31 01:35:22;;;;;;;21.52;14.77;;;7.70;99.90;;;;;;4989141;28;20056;-74
2024/01/31 01:37:50;;;;;;;20.25;14.25;;;7.70;99.90;;;;;;4989302;28;20050;-75
2024/01/31 01:40:17;;;;;;;22.70;14.77;;;7.70;99.90;;;;;;4990484;28;20453;-75
2024/01/31 01:42:44;;;;;;;20.25;14.15;;;7.70;99.90;;;;;;5009103;28;20489;-75
2024/01/31 01:45:11;;;;;;;22.33;15.15;;;7.70;99.90;;;;;;4989997;28;20046;-74
2024/01/31 01:47:42;;;;;;;22.67;14.82;;;7.70;99.90;;;;;;4973207;28;20045;-74
2024/01/31 01:50:11;;;;;;;22.15;15.38;;;7.70;99.90;;;;;;5007925;28;20069;-74
2024/01/31 01:52:38;;;;;;;23.17;15.70;;;7.80;99.90;;;;;;4977596;28;20137;-73
2024/01/31 01:55:06;;;;;;;25.38;14.70;;;7.80;99.90;;;;;;5009280;28;20089;-74
2024/01/31 01:57:38;;;;;;;;;;;7.80;99.90;;;;;;4990681;28;20061;-74
2024/01/31 02:00:08;;;;;;;24.45;15.85;;;7.80;99.90;;;;;;5007208;28;20012;-74
2024/01/31 02:02:36;;;;;;;24.80;15.38;;;7.80;99.90;;;;;;4993855;28;20042;-76
2024/01/31 02:05:04;;;;;;;22.73;14.18;;;7.80;99.90;;;;;;4992739;28;20042;-74
2024/01/31 02:07:32;;;;;;;24.17;15.48;;;7.80;99.90;;;;;;5006648;28;20415;-75
2024/01/31 02:10:00;;;;;;;21.90;15.23;;;7.80;99.90;;;;;;4990660;28;20077;-74
2024/01/31 02:12:27;;;;;;;24.73;14.68;;;7.90;99.90;;;;;;4991559;28;20466;-75
2024/01/31 02:14:57;;;;;;;21.58;14.75;;;7.90;99.90;;;;;;4988479;28;20042;-76
2024/01/31 02:17:24;;;;;;;22.42;13.82;;;7.80;99.90;;;;;;4994217;28;20065;-73
2024/01/31 02:19:51;;;;;;;24.80;15.48;;;7.80;99.90;;;;;;4994569;28;20045;-75
2024/01/31 02:22:19;;;;;;;24.35;14.38;;;7.80;99.90;;;;;;5010161;28;20425;-75
2024/01/31 02:24:48;;;;;;;19.10;13.63;;;7.80;99.90;;;;;;4992830;28;20137;-75
2024/01/31 02:27:16;;;;;;;19.73;14.15;;;7.80;99.90;;;;;;4993205;28;20474;-74
2024/01/31 02:29:43;;;;;;;19.92;13.68;;;7.80;99.90;;;;;;4979003;28;20141;-75
2024/01/31 02:32:12;;;;;;;20.42;14.60;;;7.80;99.90;;;;;;5007790;28;20599;-74
2024/01/31 02:34:39;;;;;;;23.77;14.57;;;7.80;99.90;;;;;;5007120;28;20049;-75
2024/01/31 02:37:06;;;;;;;20.23;13.75;;;7.80;99.90;;;;;;4992127;28;20057;-74
2024/01/31 02:39:33;;;;;;;22.90;15.32;;;7.80;99.90;;;;;;5007885;28;20642;-74
2024/01/31 02:42:01;;;;;;;21.42;14.05;;;7.80;99.90;;;;;;5007163;28;20093;-74
2024/01/31 02:44:28;;;;;;;19.40;14.27;;;7.80;99.90;;;;;;5007673;28;20050;-75
2024/01/31 02:46:55;;;;;;;22.60;14.55;;;7.80;99.90;;;;;;4989605;28;20097;-74
2024/01/31 02:49:22;;;;;;;22.58;14.60;;;7.90;99.90;;;;;;4976356;28;20426;-74
2024/01/31 02:51:52;;;;;;;23.77;14.57;;;7.90;99.90;;;;;;4990153;28;20101;-75
2024/01/31 02:54:22;;;;;;;24.20;14.70;;;7.90;99.90;;;;;;5010847;28;20116;-74
2024/01/31 02:56:49;;;;;;;23.85;15.13;;;8.00;99.90;;;;;;4991617;28;20045;-73
2024/01/31 02:59:16;;;;;;;26.45;14.38;;;8.00;99.90;;;;;;5010664;28;20490;-74
2024/01/31 03:01:46;;;;;;;26.50;14.80;;;8.00;99.90;;;;;;4963713;28;20652;-74
2024/01/31 03:04:13;;;;;;;26.27;15.10;;;8.00;99.90;;;;;;4993602;28;20052;-74
2024/01/31 03:06:40;;;;;;;23.95;14.43;;;8.10;99.90;;;;;;4991626;28;20450;-74
2024/01/31 03:09:09;;;;;;;22.13;14.73;;;8.10;99.90;;;;;;4978880;28;20598;-73
2024/01/31 03:11:36;;;;;;;26.45;13.88;;;8.00;99.90;;;;;;4992857;28;20057;-74
2024/01/31 03:14:03;;;;;;;23.80;14.68;;;8.10;99.90;;;;;;5006431;28;20041;-74
2024/01/31 03:16:30;;;;;;;22.58;14.10;;;8.10;99.90;;;;;;4993328;28;20057;-73
2024/01/31 03:18:58;;;;;;;29.30;15.68;;;8.10;99.90;;;;;;5011230;28;20119;-74
2024/01/31 03:21:26;;;;;;;24.42;15.02;;;8.10;99.90;;;;;;5008467;28;20142;-74
2024/01/31 03:23:53;;;;;;;28.42;15.98;;;8.10;99.90;;;;;;4995924;28;20033;-74
2024/01/31 03:26:20;;;;;;;24.25;16.50;;;8.20;99.90;;;;;;5005743;28;20049;-74
2024/01/31 03:28:47;;;;;;;28.90;15.88;;;8.20;99.90;;;;;;4990520;28;20481;-75
2024/01/31 03:31:14;;;;;;;31.50;17.02;;;8.20;99.90;;;;;;4992602;28;20056;-74
2024/01/31 03:33:41;;;;;;;24.13;15.18;;;8.20;99.90;;;;;;4976717;28;20041;-74
2024/01/31 03:36:12;;;;;;;29.35;16.05;;;8.20;99.90;;;;;;4974512;28;20057;-74
2024/01/31 03:38:39;;;;;;;28.85;15.60;;;8.20;99.90;;;;;;4994091;28;20541;-74
2024/01/31 03:41:07;;;;;;;27.13;16.88;;;8.30;99.90;;;;;;5005675;28;20101;-74
2024/01/31 03:43:34;;;;;;;28.17;16.20;;;8.30;99.90;;;;;;5005601;28;20050;-74
2024/01/31 03:46:05;;;;;;;29.27;16.02;;;8.30;99.90;;;;;;5008614;28;20606;-74
2024/01/31 03:48:33;;;;;;;28.48;15.57;;;8.30;99.90;;;;;;4993117;28;20104;-74
2024/01/31 03:51:02;;;;;;;23.63;14.77;;;8.30;99.90;;;;;;5009349;28;20449;-74
2024/01/31 03:53:29;;;;;;;24.60;15.95;;;8.30;99.90;;;;;;5007295;28;20445;-74
2024/01/31 03:55:58;;;;;;;30.90;16.33;;;8.30;99.90;;;;;;4974760;28;20053;-74
2024/01/31 03:58:25;;;;;;;28.83;15.82;;;8.30;99.90;;;;;;5009122;28;20058;-74
2024/01/31 04:00:53;;;;;;;25.65;15.52;;;8.30;99.90;;;;;;4990717;28;20038;-74
2024/01/31 04:03:20;;;;;;;27.08;16.08;;;8.20;99.90;;;;;;4973812;28;20478;-74
2024/01/31 04:05:48;;;;;;;28.67;16.25;;;8.20;99.90;;;;;;4956960;28;20101;-73
2024/01/31 04:08:16;;;;;;;32.85;17.02;;;8.20;99.90;;;;;;4991815;28;20050;-75
2024/01/31 04:10:43;;;;;;;25.30;15.70;;;8.20;99.90;;;;;;4992996;28;20691;-75
2024/01/31 04:13:10;;;;;;;27.27;14.90;;;8.20;99.90;;;;;;4989839;28;20046;-75
2024/01/31 04:15:37;;;;;;;24.30;14.57;;;8.20;99.90;;;;;;5011217;28;20580;-74
2024/01/31 04:18:07;;;;;;;26.17;14.90;;;8.20;99.90;;;;;;5006502;28;20074;-75
2024/01/31 04:20:38;;;;;;;24.95;15.50;;;8.20;99.90;;;;;;4988106;28;20042;-75
2024/01/31 04:23:06;;;;;;;25.57;14.57;;;8.20;99.90;;;;;;4988229;28;20627;-75
2024/01/31 04:25:34;;;;;;;21.27;14.00;;;8.10;99.90;;;;;;5009325;28;20033;-75
2024/01/31 04:28:01;;;;;;;20.35;13.88;;;8.10;99.90;;;;;;5009326;28;20060;-75
2024/01/31 04:30:28;;;;;;;29.17;17.00;;;8.10;99.90;;;;;;4998461;28;20534;-75
2024/01/31 04:33:02;;;;;;;36.40;21.60;;;8.10;99.90;;;;;;5010141;28;20057;-75
2024/01/31 04:35:30;;;;;;;30.50;18.40;;;8.10;99.90;;;;;;4991303;28;20045;-75
2024/01/31 04:37:57;;;;;;;30.52;17.40;;;8.10;99.90;;;;;;4992259;28;20046;-72
2024/01/31 04:40:24;;;;;;;27.35;15.90;;;8.10;99.90;;;;;;4991380;28;20048;-74
2024/01/31 04:42:51;;;;;;;24.67;15.80;;;8.00;99.90;;;;;;4976459;28;20053;-75
2024/01/31 04:45:20;;;;;;;28.10;15.68;;;8.00;99.90;;;;;;4974948;28;20053;-74
2024/01/31 04:47:47;;;;;;;26.35;15.75;;;8.10;99.90;;;;;;4990649;28;20057;-75
2024/01/31 04:50:16;;;;;;;25.10;15.55;;;8.00;99.90;;;;;;5003437;28;20058;-74
2024/01/31 04:52:44;;;;;;;23.77;15.80;;;8.10;99.90;;;;;;5004057;28;20077;-76
2024/01/31 04:55:13;;;;;;;28.95;17.40;;;8.10;99.90;;;;;;5011604;28;20053;-75
2024/01/31 04:57:40;;;;;;;27.05;15.45;;;8.10;99.90;;;;;;5006232;28;20141;-75
2024/01/31 05:00:15;;;;;;;31.13;16.98;;;8.10;99.90;;;;;;5008455;28;20045;-75
2024/01/31 05:02:44;;;;;;;24.88;16.08;;;8.10;99.90;;;;;;5008075;28;20072;-75
2024/01/31 05:05:11;;;;;;;25.55;15.32;;;8.00;99.90;;;;;;4985347;28;20201;-74
2024/01/31 05:07:38;;;;;;;23.95;15.63;;;8.00;99.90;;;;;;5007016;28;20041;-75
2024/01/31 05:10:05;;;;;;;31.25;15.35;;;8.10;99.90;;;;;;4990797;28;20490;-75
2024/01/31 05:12:32;;;;;;;26.63;15.20;;;8.00;99.90;;;;;;4989821;28;20537;-74
2024/01/31 05:14:59;;;;;;;26.75;15.38;;;8.10;99.90;;;;;;4969425;28;20410;-74
2024/01/31 05:17:26;;;;;;;24.33;15.65;;;8.10;99.90;;;;;;4994631;28;20046;-74
2024/01/31 05:19:53;;;;;;;28.02;15.10;;;8.10;99.90;;;;;;5009736;28;20077;-75
2024/01/31 05:22:20;;;;;;;23.98;15.35;;;8.10;99.90;;;;;;4991137;28;20155;-75
2024/01/31 05:24:49;;;;;;;26.17;15.52;;;8.10;99.90;;;;;;4995262;28;20042;-74
2024/01/31 05:27:16;;;;;;;24.60;14.88;;;8.10;99.90;;;;;;5006327;28;20101;-74
2024/01/31 05:29:44;;;;;;;24.95;16.08;;;8.10;99.90;;;;;;4988363;28;20046;-74
2024/01/31 05:32:12;;;;;;;25.25;14.88;;;8.10;99.90;;;;;;4997192;28;20046;-74
2024/01/31 05:34:43;;;;;;;25.60;15.48;;;8.10;99.90;;;;;;5002915;28;20046;-74
2024/01/31 05:37:12;;;;;;;;;;;8.10;99.90;;;;;;4990609;28;20058;-75
2024/01/31 05:39:40;;;;;;;24.17;15.25;;;8.10;99.90;;;;;;5007440;28;20128;-76
2024/01/31 05:42:07;;;;;;;25.95;15.48;;;8.10;99.90;;;;;;4993496;28;20057;-75
2024/01/31 05:44:36;;;;;;;29.45;15.68;;;8.00;99.90;;;;;;5013452;28;20100;-75
2024/01/31 05:47:03;;;;;;;24.33;15.05;;;7.90;99.90;;;;;;5011527;28;20045;-74
2024/01/31 05:49:30;;;;;;;26.38;15.50;;;7.80;99.90;;;;;;4997758;28;20030;-75
2024/01/31 05:51:57;;;;;;;25.42;15.05;;;7.70;99.90;;;;;;4982329;28;20057;-76
2024/01/31 05:54:24;;;;;;;27.70;16.52;;;7.70;99.90;;;;;;4977473;28;20087;-74
2024/01/31 05:56:52;;;;;;;25.17;15.63;;;7.60;99.90;;;;;;4993723;28;20064;-74
2024/01/31 05:59:25;;;;;;;28.08;16.45;;;7.60;99.90;;;;;;4995063;28;20049;-74
2024/01/31 06:01:52;;;;;;;24.60;15.70;;;7.60;99.90;;;;;;4996665;28;20054;-74
2024/01/31 06:04:20;;;;;;;29.55;16.55;;;7.60;99.90;;;;;;4976719;28;20069;-74
2024/01/31 06:06:47;;;;;;;27.08;16.10;;;7.60;99.90;;;;;;4992897;28;20048;-73
2024/01/31 06:09:14;;;;;;;26.92;16.38;;;7.40;99.90;;;;;;4979134;28;20046;-72
2024/01/31 06:11:41;;;;;;;28.40;16.77;;;7.30;99.90;;;;;;4993296;28;20049;-74
2024/01/31 06:14:08;;;;;;;26.52;16.98;;;7.10;99.90;;;;;;5011066;28;20050;-72
2024/01/31 06:16:35;;;;;;;27.90;17.45;;;7.00;99.90;;;;;;4976812;28;20037;-71
2024/01/31 06:19:02;;;;;;;32.40;17.88;;;7.00;99.90;;;;;;4993726;28;20100;-72
2024/01/31 06:21:29;;;;;;;28.38;18.48;;;6.90;99.90;;;;;;4994411;28;20065;-71
2024/01/31 06:23:59;;;;;;;32.00;18.98;;;6.90;99.90;;;;;;4974962;28;20075;-72
2024/01/31 06:26:28;;;;;;;29.88;17.80;;;6.80;99.90;;;;;;4997997;28;20045;-71
2024/01/31 06:28:55;;;;;;;29.55;18.90;;;6.80;99.90;;;;;;5014323;28;20084;-71
2024/01/31 06:31:28;;;;;;;28.40;18.30;;;6.80;99.90;;;;;;5009969;28;20077;-73
2024/01/31 06:33:56;;;;;;;33.13;18.45;;;6.80;99.90;;;;;;5012442;28;20041;-72
2024/01/31 06:36:23;;;;;;;28.58;17.92;;;6.80;99.90;;;;;;4995201;28;20073;-73
2024/01/31 06:38:52;;;;;;;31.48;19.67;;;6.80;99.90;;;;;;4990840;28;20109;-76
2024/01/31 06:41:20;;;;;;;31.20;18.77;;;6.80;99.90;;;;;;5007026;28;20037;-77
2024/01/31 06:43:47;;;;;;;29.42;17.45;;;6.80;99.90;;;;;;5007455;28;20052;-77
2024/01/31 06:46:16;;;;;;;27.42;17.15;;;6.80;99.90;;;;;;5010414;28;20073;-75
2024/01/31 06:48:43;;;;;;;25.20;17.92;;;6.80;99.90;;;;;;5010805;28;20044;-77
2024/01/31 06:51:10;;;;;;;32.13;18.60;;;6.80;99.90;;;;;;4993942;28;20061;-75
2024/01/31 06:53:37;;;;;;;30.55;19.33;;;6.70;99.90;;;;;;5010378;28;20649;-74
2024/01/31 06:56:05;;;;;;;28.77;18.73;;;6.70;99.90;;;;;;4990744;28;20149;-76
2024/01/31 06:58:32;;;;;;;30.88;18.98;;;6.70;99.90;;;;;;5009504;28;20073;-76
2024/01/31 07:01:01;;;;;;;30.20;18.20;;;6.70;99.90;;;;;;4991167;28;20057;-75
2024/01/31 07:03:30;;;;;;;29.67;18.67;;;6.70;99.90;;;;;;4992181;28;20080;-76
2024/01/31 07:05:57;;;;;;;30.55;18.48;;;6.70;99.90;;;;;;4993211;28;20060;-75
2024/01/31 07:08:25;;;;;;;31.58;18.98;;;6.70;99.90;;;;;;5011438;28;20037;-73
2024/01/31 07:10:52;;;;;;;30.10;18.20;;;6.70;99.90;;;;;;4975402;28;20502;-73
2024/01/31 07:13:19;;;;;;;28.05;17.05;;;6.70;99.90;;;;;;4993529;28;20391;-75
2024/01/31 07:15:48;;;;;;;26.65;17.52;;;6.70;99.90;;;;;;5013276;28;20113;-75
2024/01/31 07:18:17;;;;;;;30.67;18.50;;;6.70;99.90;;;;;;4993255;28;20470;-74
2024/01/31 07:20:44;;;;;;;32.28;17.05;;;6.60;99.90;;;;;;5011652;28;20050;-74
2024/01/31 07:23:11;;;;;;;27.67;16.13;;;6.60;99.90;;;;;;4994760;28;20441;-73
2024/01/31 07:25:39;;;;;;;27.48;15.30;;;6.70;99.90;;;;;;5007385;28;20036;-73
2024/01/31 07:28:07;;;;;;;27.23;15.98;;;6.60;99.90;;;;;;5010659;28;20425;-75
2024/01/31 07:30:38;;;;;;;26.83;16.85;;;6.60;99.90;;;;;;5006815;28;20057;-74
2024/01/31 07:33:05;;;;;;;28.50;17.50;;;6.60;99.90;;;;;;5009032;28;20093;-74
2024/01/31 07:35:34;;;;;;;27.98;15.38;;;6.60;99.90;;;;;;5010601;28;20053;-72
2024/01/31 07:38:00;;;;;;;28.33;16.05;;;6.70;99.90;;;;;;4955781;28;20525;-74
2024/01/31 07:40:27;;;;;;;27.40;14.80;;;6.70;99.90;;;;;;4992747;28;20125;-74
2024/01/31 07:42:56;;;;;;;28.92;15.38;;;6.70;99.90;;;;;;5011310;28;20133;-74
2024/01/31 07:45:24;;;;;;;26.90;14.15;;;6.70;99.90;;;;;;4977323;28;20037;-73
2024/01/31 07:47:51;;;;;;;25.98;13.52;;;6.80;99.90;;;;;;5009724;28;20144;-73
2024/01/31 07:50:18;;;;;;;20.98;13.60;;;6.80;99.90;;;;;;4976967;28;20055;-74
2024/01/31 07:52:45;;;;;;;21.38;14.20;;;6.80;99.90;;;;;;5010255;28;20045;-74
2024/01/31 07:55:12;;;;;;;22.88;14.02;;;6.80;99.90;;;;;;5008771;28;20053;-74
2024/01/31 07:57:39;;;;;;;23.45;13.85;;;6.80;99.90;;;;;;4991888;28;20049;-74
2024/01/31 08:00:07;;;;;;;22.65;14.05;;;6.80;99.90;;;;;;4992996;28;20056;-74
2024/01/31 08:02:34;;;;;;;23.45;14.07;;;6.90;99.90;;;;;;5011400;28;20668;-73
2024/01/31 08:05:01;;;;;;;24.77;13.43;;;6.90;99.90;;;;;;5011898;28;20046;-74
2024/01/31 08:07:30;;;;;;;22.67;13.60;;;6.90;99.90;;;;;;4975950;28;20481;-74
2024/01/31 08:09:57;;;;;;;24.92;12.95;;;6.90;99.90;;;;;;4992611;28;20038;-74
2024/01/31 08:12:24;;;;;;;21.25;12.93;;;6.90;99.90;;;;;;5012064;28;20045;-73
2024/01/31 08:14:51;;;;;;;21.08;13.25;;;6.90;99.90;;;;;;5008192;28;20060;-73
2024/01/31 08:17:18;;;;;;;23.85;13.80;;;7.00;99.90;;;;;;4991665;28;20112;-73
2024/01/31 08:19:45;;;;;;;23.25;11.52;;;7.10;99.90;;;;;;4992675;28;20038;-75
2024/01/31 08:22:14;;;;;;;24.50;12.75;;;7.10;99.90;;;;;;4976795;28;20439;-75
2024/01/31 08:24:41;;;;;;;19.48;11.63;;;7.10;99.90;;;;;;4975267;28;20046;-73
2024/01/31 08:27:09;;;;;;;23.90;11.70;;;7.20;99.90;;;;;;4952638;28;20104;-73
2024/01/31 08:29:36;;;;;;;24.02;12.23;;;7.20;99.90;;;;;;4976267;28;20119;-73
2024/01/31 08:32:03;;;;;;;22.20;12.38;;;7.20;99.90;;;;;;4976792;28;20049;-73
2024/01/31 08:34:31;;;;;;;23.75;12.50;;;7.20;99.90;;;;;;4977662;28;20116;-72
2024/01/31 08:36:59;;;;;;;21.48;11.70;;;7.30;99.90;;;;;;5003029;28;20042;-73
2024/01/31 08:39:29;;;;;;;19.23;12.35;;;7.40;99.90;;;;;;4990647;28;20053;-74
2024/01/31 08:41:57;;;;;;;19.10;12.20;;;7.30;99.90;;;;;;5009127;28;20042;-74
2024/01/31 08:44:24;;;;;;;20.50;13.20;;;7.30;99.90;;;;;;4956917;28;20065;-73
2024/01/31 08:46:52;;;;;;;20.92;12.55;;;7.30;99.90;;;;;;4990032;28;20409;-74
2024/01/31 08:49:39;;;;;;;20.20;12.23;;;7.40;99.90;;;;;;4976726;28;20034;-73
2024/01/31 08:52:08;;;;;;;20.92;13.02;;;7.40;99.90;;;;;;4990157;28;20096;-73
2024/01/31 08:54:36;;;;;;;20.15;12.25;;;7.50;99.90;;;;;;4975973;28;20130;-75
2024/01/31 08:57:04;;;;;;;19.75;12.23;;;7.50;99.90;;;;;;4988674;28;20041;-75
2024/01/31 08:59:33;;;;;;;20.58;11.70;;;7.60;99.90;;;;;;4989799;28;20051;-73
2024/01/31 09:02:00;;;;;;;20.45;11.20;;;7.70;99.90;;;;;;5008725;28;20093;-73
2024/01/31 09:04:28;;;;;;;20.67;12.52;;;7.70;99.90;;;;;;4985874;28;20049;-73
2024/01/31 09:06:55;;;;;;;19.45;11.13;;;7.70;99.90;;;;;;5007104;28;20431;-75
2024/01/31 09:09:22;;;;;;;16.98;11.35;;;7.80;99.90;;;;;;4975712;28;20084;-73
2024/01/31 09:11:49;;;;;;;19.35;12.02;;;7.90;99.90;;;;;;5008444;28;20129;-73
2024/01/31 09:14:18;;;;;;;18.50;11.38;;;7.90;99.90;;;;;;4993254;28;20116;-73
2024/01/31 09:16:46;;;;;;;19.58;11.98;;;8.00;99.90;;;;;;5012104;28;20054;-73
2024/01/31 09:19:13;;;;;;;18.98;11.85;;;7.80;99.90;;;;;;5008537;28;20537;-73
2024/01/31 09:21:41;;;;;;;19.67;10.77;;;7.80;99.90;;;;;;4987852;28;20407;-74
2024/01/31 09:24:10;;;;;;;25.27;12.43;;;7.90;99.90;;;;;;4973822;28;20042;-74
2024/01/31 09:26:37;;;;;;;24.88;12.70;;;8.10;99.90;;;;;;4993879;28;20137;-74
2024/01/31 09:29:05;;;;;;;18.60;10.80;;;8.20;99.90;;;;;;5015003;28;20423;-74
2024/01/31 09:31:32;;;;;;;19.45;10.65;;;8.30;99.90;;;;;;5017255;28;20100;-74
2024/01/31 09:33:59;;;;;;;17.55;10.45;;;8.40;99.90;;;;;;5013469;28;20302;-73
2024/01/31 09:36:26;;;;;;;13.18;9.13;;;8.70;99.90;;;;;;5023337;28;20112;-74
2024/01/31 09:38:53;;;;;;;15.65;9.48;;;8.70;99.90;;;;;;5015337;28;20046;-74
2024/01/31 09:41:22;;;;;;;15.25;9.23;;;8.80;99.90;;;;;;4975720;28;20046;-74
2024/01/31 09:43:53;;;;;;;15.55;8.70;;;8.80;99.90;;;;;;5011106;28;20038;-74
2024/01/31 09:46:20;;;;;;;16.30;9.05;;;8.90;99.90;;;;;;4990194;28;20066;-74
2024/01/31 09:48:48;;;;;;;16.02;9.02;;;9.00;99.90;;;;;;4976210;28;20048;-75
2024/01/31 09:51:16;;;;;;;16.15;9.68;;;9.10;99.90;;;;;;5013637;28;20601;-72
2024/01/31 09:53:48;;;;;;;16.25;9.57;;;9.00;99.90;;;;;;5010029;28;20068;-73
2024/01/31 09:56:17;;;;;;;17.05;9.38;;;9.00;99.90;;;;;;4998463;28;20050;-73
2024/01/31 09:58:44;;;;;;;13.38;9.23;;;9.00;99.90;;;;;;5011044;28;20068;-74
2024/01/31 10:01:12;;;;;;;14.75;8.68;;;8.90;99.90;;;;;;4997431;28;20092;-73
2024/01/31 10:03:52;;;;;;;14.57;9.32;;;9.00;99.90;;;;;;4980819;28;20049;-73
2024/01/31 10:06:20;;;;;;;13.18;9.43;;;9.00;99.90;;;;;;5014488;28;20041;-74
2024/01/31 10:08:48;;;;;;;16.33;8.52;;;8.90;99.90;;;;;;4995392;28;20042;-74
2024/01/31 10:11:17;;;;;;;14.38;9.10;;;9.10;99.90;;;;;;4995593;28;20049;-74
2024/01/31 10:13:44;;;;;;;15.50;9.25;;;9.20;99.90;;;;;;4994158;28;20054;-73
2024/01/31 10:16:15;;;;;;;15.50;10.35;;;9.30;99.90;;;;;;4993158;28;20045;-72
2024/01/31 10:18:44;;;;;;;15.25;9.07;;;9.40;99.90;;;;;;4965354;28;20049;-74
2024/01/31 10:21:11;;;;;;;13.50;8.63;;;9.60;99.90;;;;;;4993126;28;20426;-74
2024/01/31 10:23:38;;;;;;;17.30;9.15;;;9.80;99.90;;;;;;4975301;28;20038;-74
2024/01/31 10:26:07;;;;;;;14.38;9.10;;;10.00;99.90;;;;;;5010854;28;20072;-73
2024/01/31 10:28:37;;;;;;;17.08;8.52;;;10.20;99.90;;;;;;4994871;28;20040;-74
2024/01/31 10:31:12;;;;;;;13.88;8.45;;;10.50;99.90;;;;;;4992583;28;20057;-74
2024/01/31 10:33:39;;;;;;;11.23;7.47;;;10.60;99.90;;;;;;4991610;28;20041;-74
2024/01/31 10:36:09;;;;;;;11.15;7.80;;;10.60;99.90;;;;;;5006947;28;20049;-74
2024/01/31 10:38:56;;;;;;;13.05;8.75;;;10.70;99.90;;;;;;4992856;28;20037;-74
2024/01/31 10:41:25;;;;;;;12.32;8.13;;;10.70;99.90;;;;;;4975007;28;20470;-74
2024/01/31 10:43:53;;;;;;;18.25;10.15;;;10.60;99.90;;;;;;4991478;28;20129;-75
2024/01/31 10:46:21;;;;;;;18.95;10.57;;;10.50;99.90;;;;;;5005569;28;20075;-75
2024/01/31 10:48:49;;;;;;;18.45;10.88;;;10.40;99.90;;;;;;5010667;28;20125;-74
2024/01/31 10:51:17;;;;;;;23.08;11.93;;;10.20;99.90;;;;;;5006669;28;20596;-74
2024/01/31 10:53:49;;;;;;;;;;;10.10;99.90;;;;;;5010298;28;20057;-77
2024/01/31 10:56:17;;;;;;;17.50;10.27;;;9.90;99.90;;;;;;5012715;28;20015;-76
2024/01/31 10:58:46;;;;;;;19.83;10.45;;;10.00;99.90;;;;;;5012632;28;20387;-77
2024/01/31 11:01:17;;;;;;;17.33;9.82;;;10.10;99.90;;;;;;4991948;28;20538;-77
2024/01/31 11:03:46;;;;;;;14.45;10.13;;;10.20;99.90;;;;;;4976154;28;20221;-77
2024/01/31 11:06:13;;;;;;;17.83;9.88;;;10.40;99.90;;;;;;4977866;28;20042;-76
2024/01/31 11:08:41;;;;;;;16.80;9.00;;;10.60;99.90;;;;;;4992200;28;20116;-75
2024/01/31 11:11:11;;;;;;;13.82;10.32;;;10.70;99.90;;;;;;4977305;28;20050;-77
2024/01/31 11:13:38;;;;;;;17.00;9.75;;;10.60;99.90;;;;;;4978698;28;20045;-76
2024/01/31 11:16:06;;;;;;;14.95;10.15;;;10.50;99.90;;;;;;4961048;28;20156;-76
2024/01/31 11:18:38;;;;;;;19.27;9.90;;;10.40;99.90;;;;;;5009691;28;20049;-75
2024/01/31 11:21:08;;;;;;;16.92;10.48;;;10.20;99.90;;;;;;5009124;28;20453;-75
2024/01/31 11:23:35;;;;;;;14.73;10.15;;;10.30;99.90;;;;;;5009454;28;20066;-76
2024/01/31 11:26:02;;;;;;;13.00;9.75;;;10.30;99.90;;;;;;4992729;28;20093;-76
2024/01/31 11:28:29;;;;;;;17.88;9.93;;;10.20;99.90;;;;;;4986960;28;20110;-77
2024/01/31 11:30:56;;;;;;;13.60;9.30;;;10.30;99.90;;;;;;4994032;28;20117;-75
2024/01/31 11:33:23;;;;;;;16.83;10.10;;;10.50;99.90;;;;;;4994775;28;20120;-77
2024/01/31 11:35:51;;;;;;;16.65;9.82;;;10.70;99.90;;;;;;5005787;28;20057;-76
2024/01/31 11:38:20;;;;;;;14.95;10.02;;;10.80;99.90;;;;;;4994985;28;20105;-76
2024/01/31 11:40:47;;;;;;;12.35;8.55;;;11.10;99.90;;;;;;4992045;28;20054;-75
2024/01/31 11:43:17;;;;;;;13.93;8.95;;;11.60;99.90;;;;;;4991078;28;20048;-76
2024/01/31 11:45:45;;;;;;;14.50;9.13;;;11.80;99.90;;;;;;5008894;28;20458;-76
2024/01/31 11:48:16;;;;;;;13.75;9.63;;;12.00;99.90;;;;;;4989864;28;20149;-76
2024/01/31 11:50:43;;;;;;;13.23;8.90;;;11.60;99.90;;;;;;5009714;28;20038;-73
2024/01/31 11:53:10;;;;;;;15.40;10.32;;;11.80;99.90;;;;;;4990109;28;20786;-74
2024/01/31 11:55:38;;;;;;;12.57;9.32;;;11.90;99.90;;;;;;4975853;28;20101;-72
2024/01/31 11:58:05;;;;;;;16.52;10.00;;;12.20;99.90;;;;;;5007614;28;20038;-74
2024/01/31 12:00:32;;;;;;;13.45;9.38;;;12.10;99.90;;;;;;4977663;28;20046;-73
2024/01/31 12:03:00;;;;;;;13.75;9.77;;;12.20;99.90;;;;;;4976480;28;20046;-75
2024/01/31 12:05:27;;;;;;;12.73;9.65;;;12.10;99.90;;;;;;4978468;28;20053;-74
2024/01/31 12:07:57;;;;;;;13.55;9.63;;;12.10;99.90;;;;;;5011798;28;20037;-74
2024/01/31 12:10:27;;;;;;;15.13;10.32;;;12.00;99.90;;;;;;5008728;28;20345;-73
2024/01/31 12:12:57;;;;;;;17.30;11.43;;;12.20;99.90;;;;;;4993634;28;20140;-74
2024/01/31 12:15:26;;;;;;;15.68;11.10;;;12.00;99.90;;;;;;5011759;28;20432;-70
2024/01/31 12:17:54;;;;;;;17.25;10.40;;;11.60;99.90;;;;;;5010407;28;20084;-70
2024/01/31 12:20:22;;;;;;;15.77;10.75;;;11.80;99.90;;;;;;5010575;28;20512;-71
2024/01/31 12:22:49;;;;;;;17.08;11.30;;;11.90;99.90;;;;;;4991490;28;20052;-71
2024/01/31 12:25:16;;;;;;;17.13;10.32;;;11.90;99.90;;;;;;5011563;28;20546;-70
2024/01/31 12:27:43;;;;;;;19.35;11.38;;;11.80;99.90;;;;;;4993627;28;20513;-70
2024/01/31 12:30:11;;;;;;;17.83;10.43;;;11.70;99.90;;;;;;5015531;28;20074;-69
2024/01/31 12:32:38;;;;;;;15.73;11.43;;;11.80;99.90;;;;;;4992178;28;20461;-72
2024/01/31 12:35:06;;;;;;;17.45;11.15;;;11.90;99.90;;;;;;4990113;28;20045;-71
2024/01/31 12:37:34;;;;;;;19.08;11.73;;;11.90;99.90;;;;;;5006312;28;20122;-71
2024/01/31 12:40:01;;;;;;;15.68;10.32;;;11.90;99.90;;;;;;4990233;28;20038;-71
2024/01/31 12:42:28;;;;;;;15.38;9.77;;;11.80;99.90;;;;;;4990518;28;20049;-70